sensor_id;sensor_type;location;lat;lon;timestamp;P1;durP1;ratioP1;P2;durP2;ratioP2
7583;SDS011;3833;41.764;26.204;2023-04-24T00:00:11;5.00;;;4.60;;
7583;SDS011;3833;41.764;26.204;2023-04-24T00:02:41;5.00;;;4.47;;
7583;SDS011;3833;41.764;26.204;2023-04-24T00:05:11;5.57;;;4.47;;
7583;SDS011;3833;41.764;26.204;2023-04-24T00:07:38;6.83;;;5.90;;
7583;SDS011;3833;41.764;26.204;2023-04-24T00:10:06;9.93;;;8.57;;
7583;SDS011;3833;41.764;26.204;2023-04-24T00:12:33;9.27;;;8.77;;
7583;SDS011;3833;41.764;26.204;2023-04-24T00:15:00;9.77;;;7.90;;
7583;SDS011;3833;41.764;26.204;2023-04-24T00:17:27;9.37;;;6.03;;
7583;SDS011;3833;41.764;26.204;2023-04-24T00:19:55;6.77;;;4.67;;
7583;SDS011;3833;41.764;26.204;2023-04-24T00:22:23;4.90;;;4.40;;
7583;SDS011;3833;41.764;26.204;2023-04-24T00:24:50;8.70;;;8.10;;
7583;SDS011;3833;41.764;26.204;2023-04-24T00:27:17;9.87;;;8.90;;
7583;SDS011;3833;41.764;26.204;2023-04-24T00:29:44;8.63;;;7.73;;
7583;SDS011;3833;41.764;26.204;2023-04-24T00:32:10;8.87;;;8.17;;
7583;SDS011;3833;41.764;26.204;2023-04-24T00:34:37;7.87;;;4.90;;
7583;SDS011;3833;41.764;26.204;2023-04-24T00:37:06;6.53;;;4.53;;
7583;SDS011;3833;41.764;26.204;2023-04-24T00:39:32;7.03;;;4.73;;
7583;SDS011;3833;41.764;26.204;2023-04-24T00:41:59;9.20;;;4.90;;
7583;SDS011;3833;41.764;26.204;2023-04-24T00:44:26;8.43;;;7.73;;
7583;SDS011;3833;41.764;26.204;2023-04-24T00:46:54;8.70;;;8.10;;
7583;SDS011;3833;41.764;26.204;2023-04-24T00:49:21;9.17;;;7.97;;
7583;SDS011;3833;41.764;26.204;2023-04-24T00:51:48;8.23;;;7.63;;
7583;SDS011;3833;41.764;26.204;2023-04-24T00:54:18;7.30;;;4.60;;
7583;SDS011;3833;41.764;26.204;2023-04-24T00:56:44;4.80;;;4.27;;
7583;SDS011;3833;41.764;26.204;2023-04-24T00:59:12;8.53;;;4.70;;
7583;SDS011;3833;41.764;26.204;2023-04-24T01:01:39;6.33;;;4.47;;
7583;SDS011;3833;41.764;26.204;2023-04-24T01:04:07;5.20;;;3.90;;
7583;SDS011;3833;41.764;26.204;2023-04-24T01:06:35;6.30;;;5.70;;
7583;SDS011;3833;41.764;26.204;2023-04-24T01:09:04;5.50;;;5.10;;
7583;SDS011;3833;41.764;26.204;2023-04-24T01:11:33;7.30;;;5.80;;
7583;SDS011;3833;41.764;26.204;2023-04-24T01:14:00;6.33;;;4.93;;
7583;SDS011;3833;41.764;26.204;2023-04-24T01:16:27;6.00;;;3.80;;
7583;SDS011;3833;41.764;26.204;2023-04-24T01:18:54;8.60;;;4.20;;
7583;SDS011;3833;41.764;26.204;2023-04-24T01:21:21;7.20;;;6.60;;
7583;SDS011;3833;41.764;26.204;2023-04-24T01:23:51;7.33;;;6.63;;
7583;SDS011;3833;41.764;26.204;2023-04-24T01:26:18;6.43;;;5.90;;
7583;SDS011;3833;41.764;26.204;2023-04-24T01:28:46;7.20;;;5.87;;
7583;SDS011;3833;41.764;26.204;2023-04-24T01:31:13;5.97;;;3.70;;
7583;SDS011;3833;41.764;26.204;2023-04-24T01:33:40;6.07;;;3.70;;
7583;SDS011;3833;41.764;26.204;2023-04-24T01:36:08;5.13;;;4.07;;
7583;SDS011;3833;41.764;26.204;2023-04-24T01:38:35;5.87;;;3.80;;
7583;SDS011;3833;41.764;26.204;2023-04-24T01:41:03;4.97;;;3.87;;
7583;SDS011;3833;41.764;26.204;2023-04-24T01:43:30;6.97;;;6.47;;
7583;SDS011;3833;41.764;26.204;2023-04-24T01:45:58;7.00;;;6.40;;
7583;SDS011;3833;41.764;26.204;2023-04-24T01:48:25;6.10;;;5.60;;
7583;SDS011;3833;41.764;26.204;2023-04-24T01:50:52;5.90;;;5.40;;
7583;SDS011;3833;41.764;26.204;2023-04-24T01:53:19;6.83;;;3.70;;
7583;SDS011;3833;41.764;26.204;2023-04-24T01:55:46;4.30;;;3.83;;
7583;SDS011;3833;41.764;26.204;2023-04-24T01:58:14;6.03;;;5.43;;
7583;SDS011;3833;41.764;26.204;2023-04-24T02:00:41;7.03;;;6.43;;
7583;SDS011;3833;41.764;26.204;2023-04-24T02:03:08;6.37;;;5.97;;
7583;SDS011;3833;41.764;26.204;2023-04-24T02:05:34;5.77;;;5.30;;
7583;SDS011;3833;41.764;26.204;2023-04-24T02:08:01;9.03;;;3.93;;
7583;SDS011;3833;41.764;26.204;2023-04-24T02:10:28;4.77;;;3.63;;
7583;SDS011;3833;41.764;26.204;2023-04-24T02:12:55;3.97;;;3.67;;
7583;SDS011;3833;41.764;26.204;2023-04-24T02:15:23;4.67;;;3.30;;
7583;SDS011;3833;41.764;26.204;2023-04-24T02:17:50;4.13;;;3.73;;
7583;SDS011;3833;41.764;26.204;2023-04-24T02:20:17;3.93;;;3.50;;
7583;SDS011;3833;41.764;26.204;2023-04-24T02:22:44;7.33;;;5.50;;
7583;SDS011;3833;41.764;26.204;2023-04-24T02:25:10;6.47;;;5.83;;
7583;SDS011;3833;41.764;26.204;2023-04-24T02:27:37;6.43;;;5.90;;
7583;SDS011;3833;41.764;26.204;2023-04-24T02:30:05;5.63;;;5.13;;
7583;SDS011;3833;41.764;26.204;2023-04-24T02:32:34;4.03;;;3.63;;
7583;SDS011;3833;41.764;26.204;2023-04-24T02:35:01;5.30;;;4.10;;
7583;SDS011;3833;41.764;26.204;2023-04-24T02:37:28;4.47;;;4.07;;
7583;SDS011;3833;41.764;26.204;2023-04-24T02:39:55;4.47;;;4.07;;
7583;SDS011;3833;41.764;26.204;2023-04-24T02:42:22;7.00;;;4.10;;
7583;SDS011;3833;41.764;26.204;2023-04-24T02:44:48;6.07;;;5.57;;
7583;SDS011;3833;41.764;26.204;2023-04-24T02:47:16;6.57;;;5.63;;
7583;SDS011;3833;41.764;26.204;2023-04-24T02:49:44;5.67;;;5.07;;
7583;SDS011;3833;41.764;26.204;2023-04-24T02:52:11;6.03;;;5.00;;
7583;SDS011;3833;41.764;26.204;2023-04-24T02:54:38;6.77;;;4.40;;
7583;SDS011;3833;41.764;26.204;2023-04-24T02:57:05;4.90;;;4.23;;
7583;SDS011;3833;41.764;26.204;2023-04-24T02:59:32;6.00;;;5.40;;
7583;SDS011;3833;41.764;26.204;2023-04-24T03:01:59;6.97;;;5.23;;
7583;SDS011;3833;41.764;26.204;2023-04-24T03:04:25;8.43;;;5.37;;
7583;SDS011;3833;41.764;26.204;2023-04-24T03:06:54;6.53;;;5.10;;
7583;SDS011;3833;41.764;26.204;2023-04-24T03:09:21;6.23;;;4.67;;
7583;SDS011;3833;41.764;26.204;2023-04-24T03:11:48;5.83;;;5.33;;
7583;SDS011;3833;41.764;26.204;2023-04-24T03:14:15;6.20;;;5.50;;
7583;SDS011;3833;41.764;26.204;2023-04-24T03:16:42;6.03;;;5.30;;
7583;SDS011;3833;41.764;26.204;2023-04-24T03:19:09;7.17;;;5.70;;
7583;SDS011;3833;41.764;26.204;2023-04-24T03:21:35;6.03;;;4.37;;
7583;SDS011;3833;41.764;26.204;2023-04-24T03:24:07;5.20;;;4.73;;
7583;SDS011;3833;41.764;26.204;2023-04-24T03:26:34;6.47;;;4.23;;
7583;SDS011;3833;41.764;26.204;2023-04-24T03:29:00;5.70;;;5.07;;
7583;SDS011;3833;41.764;26.204;2023-04-24T03:31:27;7.23;;;5.80;;
7583;SDS011;3833;41.764;26.204;2023-04-24T03:33:54;6.93;;;6.07;;
7583;SDS011;3833;41.764;26.204;2023-04-24T03:36:21;8.10;;;5.87;;
7583;SDS011;3833;41.764;26.204;2023-04-24T03:38:48;8.37;;;5.17;;
7583;SDS011;3833;41.764;26.204;2023-04-24T03:41:16;5.23;;;4.20;;
7583;SDS011;3833;41.764;26.204;2023-04-24T03:43:44;6.20;;;4.70;;
7583;SDS011;3833;41.764;26.204;2023-04-24T03:46:10;4.97;;;4.47;;
7583;SDS011;3833;41.764;26.204;2023-04-24T03:48:37;6.17;;;5.17;;
7583;SDS011;3833;41.764;26.204;2023-04-24T03:51:04;5.30;;;4.80;;
7583;SDS011;3833;41.764;26.204;2023-04-24T03:53:31;5.30;;;4.80;;
7583;SDS011;3833;41.764;26.204;2023-04-24T03:55:58;6.53;;;4.53;;
7583;SDS011;3833;41.764;26.204;2023-04-24T03:58:26;8.23;;;5.00;;
7583;SDS011;3833;41.764;26.204;2023-04-24T04:00:53;7.07;;;4.80;;
7583;SDS011;3833;41.764;26.204;2023-04-24T04:03:22;5.70;;;4.40;;
7583;SDS011;3833;41.764;26.204;2023-04-24T04:05:49;8.30;;;4.97;;
7583;SDS011;3833;41.764;26.204;2023-04-24T04:08:15;5.63;;;4.70;;
7583;SDS011;3833;41.764;26.204;2023-04-24T04:10:42;6.07;;;5.00;;
7583;SDS011;3833;41.764;26.204;2023-04-24T04:13:09;8.43;;;4.83;;
7583;SDS011;3833;41.764;26.204;2023-04-24T04:15:37;5.00;;;4.60;;
7583;SDS011;3833;41.764;26.204;2023-04-24T04:18:05;5.87;;;4.60;;
7583;SDS011;3833;41.764;26.204;2023-04-24T04:20:32;5.13;;;4.73;;
7583;SDS011;3833;41.764;26.204;2023-04-24T04:22:59;7.60;;;5.73;;
7583;SDS011;3833;41.764;26.204;2023-04-24T04:25:26;5.63;;;5.00;;
7583;SDS011;3833;41.764;26.204;2023-04-24T04:27:52;7.23;;;5.07;;
7583;SDS011;3833;41.764;26.204;2023-04-24T04:30:20;14.10;;;9.07;;
7583;SDS011;3833;41.764;26.204;2023-04-24T04:32:48;11.43;;;8.57;;
7583;SDS011;3833;41.764;26.204;2023-04-24T04:35:15;10.83;;;9.10;;
7583;SDS011;3833;41.764;26.204;2023-04-24T04:37:42;15.33;;;9.83;;
7583;SDS011;3833;41.764;26.204;2023-04-24T04:40:09;14.07;;;9.77;;
7583;SDS011;3833;41.764;26.204;2023-04-24T04:42:37;11.47;;;9.27;;
7583;SDS011;3833;41.764;26.204;2023-04-24T04:45:08;11.07;;;9.43;;
7583;SDS011;3833;41.764;26.204;2023-04-24T04:47:36;11.00;;;9.80;;
7583;SDS011;3833;41.764;26.204;2023-04-24T04:50:06;11.27;;;10.07;;
7583;SDS011;3833;41.764;26.204;2023-04-24T04:52:33;11.70;;;8.87;;
7583;SDS011;3833;41.764;26.204;2023-04-24T04:55:00;11.77;;;9.57;;
7583;SDS011;3833;41.764;26.204;2023-04-24T04:57:27;9.33;;;8.33;;
7583;SDS011;3833;41.764;26.204;2023-04-24T04:59:55;12.40;;;9.27;;
7583;SDS011;3833;41.764;26.204;2023-04-24T05:02:22;13.50;;;9.03;;
7583;SDS011;3833;41.764;26.204;2023-04-24T05:04:49;12.23;;;9.30;;
7583;SDS011;3833;41.764;26.204;2023-04-24T05:07:17;12.70;;;10.10;;
7583;SDS011;3833;41.764;26.204;2023-04-24T05:09:44;14.47;;;10.13;;
7583;SDS011;3833;41.764;26.204;2023-04-24T05:12:11;11.77;;;8.83;;
7583;SDS011;3833;41.764;26.204;2023-04-24T05:14:37;13.83;;;9.80;;
7583;SDS011;3833;41.764;26.204;2023-04-24T05:17:04;13.77;;;11.83;;
7583;SDS011;3833;41.764;26.204;2023-04-24T05:19:31;14.27;;;13.00;;
7583;SDS011;3833;41.764;26.204;2023-04-24T05:22:01;14.57;;;13.23;;
7583;SDS011;3833;41.764;26.204;2023-04-24T05:24:30;15.27;;;13.53;;
7583;SDS011;3833;41.764;26.204;2023-04-24T05:26:57;15.47;;;9.53;;
7583;SDS011;3833;41.764;26.204;2023-04-24T05:29:24;11.60;;;8.93;;
7583;SDS011;3833;41.764;26.204;2023-04-24T05:31:52;12.73;;;8.33;;
7583;SDS011;3833;41.764;26.204;2023-04-24T05:34:19;12.93;;;7.90;;
7583;SDS011;3833;41.764;26.204;2023-04-24T05:36:46;11.13;;;7.73;;
7583;SDS011;3833;41.764;26.204;2023-04-24T05:39:12;7.27;;;6.53;;
7583;SDS011;3833;41.764;26.204;2023-04-24T05:41:41;10.60;;;7.30;;
7583;SDS011;3833;41.764;26.204;2023-04-24T05:44:08;14.53;;;7.60;;
7583;SDS011;3833;41.764;26.204;2023-04-24T05:46:35;12.73;;;9.33;;
7583;SDS011;3833;41.764;26.204;2023-04-24T05:49:02;8.43;;;7.07;;
7583;SDS011;3833;41.764;26.204;2023-04-24T05:51:28;16.47;;;15.00;;
7583;SDS011;3833;41.764;26.204;2023-04-24T05:53:56;17.30;;;15.67;;
7583;SDS011;3833;41.764;26.204;2023-04-24T05:56:25;14.50;;;13.20;;
7583;SDS011;3833;41.764;26.204;2023-04-24T05:58:53;15.30;;;14.27;;
7583;SDS011;3833;41.764;26.204;2023-04-24T06:01:20;9.33;;;7.03;;
7583;SDS011;3833;41.764;26.204;2023-04-24T06:03:47;9.87;;;7.53;;
7583;SDS011;3833;41.764;26.204;2023-04-24T06:06:14;11.53;;;7.50;;
7583;SDS011;3833;41.764;26.204;2023-04-24T06:08:41;10.60;;;6.93;;
7583;SDS011;3833;41.764;26.204;2023-04-24T06:11:09;10.60;;;7.07;;
7583;SDS011;3833;41.764;26.204;2023-04-24T06:13:36;9.47;;;7.60;;
7583;SDS011;3833;41.764;26.204;2023-04-24T06:16:04;16.10;;;14.90;;
7583;SDS011;3833;41.764;26.204;2023-04-24T06:18:31;14.43;;;13.03;;
7583;SDS011;3833;41.764;26.204;2023-04-24T06:20:58;15.73;;;14.63;;
7583;SDS011;3833;41.764;26.204;2023-04-24T06:23:25;14.07;;;12.77;;
7583;SDS011;3833;41.764;26.204;2023-04-24T06:25:52;8.97;;;7.70;;
7583;SDS011;3833;41.764;26.204;2023-04-24T06:28:18;10.33;;;7.90;;
7583;SDS011;3833;41.764;26.204;2023-04-24T06:30:45;8.80;;;6.60;;
7583;SDS011;3833;41.764;26.204;2023-04-24T06:33:14;8.00;;;6.07;;
7583;SDS011;3833;41.764;26.204;2023-04-24T06:35:40;7.70;;;6.37;;
7583;SDS011;3833;41.764;26.204;2023-04-24T06:38:07;9.83;;;6.43;;
7583;SDS011;3833;41.764;26.204;2023-04-24T06:40:34;7.33;;;6.63;;
7583;SDS011;3833;41.764;26.204;2023-04-24T06:43:01;17.57;;;16.23;;
7583;SDS011;3833;41.764;26.204;2023-04-24T06:45:28;16.33;;;15.27;;
7583;SDS011;3833;41.764;26.204;2023-04-24T06:47:55;17.33;;;15.63;;
7583;SDS011;3833;41.764;26.204;2023-04-24T06:50:23;16.80;;;15.57;;
7583;SDS011;3833;41.764;26.204;2023-04-24T06:52:50;8.97;;;6.00;;
7583;SDS011;3833;41.764;26.204;2023-04-24T06:55:17;8.90;;;7.13;;
7583;SDS011;3833;41.764;26.204;2023-04-24T06:57:44;9.27;;;6.00;;
7583;SDS011;3833;41.764;26.204;2023-04-24T07:00:11;9.00;;;6.30;;
7583;SDS011;3833;41.764;26.204;2023-04-24T07:02:39;8.57;;;6.20;;
7583;SDS011;3833;41.764;26.204;2023-04-24T07:05:06;7.60;;;5.67;;
7583;SDS011;3833;41.764;26.204;2023-04-24T07:07:35;6.20;;;5.27;;
7583;SDS011;3833;41.764;26.204;2023-04-24T07:10:03;7.67;;;6.27;;
7583;SDS011;3833;41.764;26.204;2023-04-24T07:12:30;9.10;;;5.47;;
7583;SDS011;3833;41.764;26.204;2023-04-24T07:14:58;11.40;;;10.40;;
7583;SDS011;3833;41.764;26.204;2023-04-24T07:17:25;16.00;;;15.10;;
7583;SDS011;3833;41.764;26.204;2023-04-24T07:19:52;17.23;;;15.97;;
7583;SDS011;3833;41.764;26.204;2023-04-24T07:22:18;16.97;;;15.57;;
7583;SDS011;3833;41.764;26.204;2023-04-24T07:24:47;5.33;;;4.40;;
7583;SDS011;3833;41.764;26.204;2023-04-24T07:27:14;8.20;;;4.67;;
7583;SDS011;3833;41.764;26.204;2023-04-24T07:29:40;6.30;;;4.30;;
7583;SDS011;3833;41.764;26.204;2023-04-24T07:32:07;6.50;;;4.50;;
7583;SDS011;3833;41.764;26.204;2023-04-24T07:34:34;4.43;;;3.87;;
7583;SDS011;3833;41.764;26.204;2023-04-24T07:37:01;5.50;;;4.13;;
7583;SDS011;3833;41.764;26.204;2023-04-24T07:39:28;6.27;;;4.37;;
7583;SDS011;3833;41.764;26.204;2023-04-24T07:41:57;5.67;;;4.33;;
7583;SDS011;3833;41.764;26.204;2023-04-24T07:44:25;4.30;;;3.90;;
7583;SDS011;3833;41.764;26.204;2023-04-24T07:46:52;15.30;;;14.40;;
7583;SDS011;3833;41.764;26.204;2023-04-24T07:49:20;16.17;;;15.27;;
7583;SDS011;3833;41.764;26.204;2023-04-24T07:51:46;13.33;;;12.53;;
7583;SDS011;3833;41.764;26.204;2023-04-24T07:54:13;15.57;;;14.53;;
7583;SDS011;3833;41.764;26.204;2023-04-24T07:56:41;5.73;;;4.33;;
7583;SDS011;3833;41.764;26.204;2023-04-24T07:59:09;7.77;;;4.47;;
7583;SDS011;3833;41.764;26.204;2023-04-24T08:01:36;4.63;;;4.10;;
7583;SDS011;3833;41.764;26.204;2023-04-24T08:04:03;8.10;;;4.40;;
7583;SDS011;3833;41.764;26.204;2023-04-24T08:06:30;13.23;;;12.43;;
7583;SDS011;3833;41.764;26.204;2023-04-24T08:08:57;8.43;;;7.50;;
7583;SDS011;3833;41.764;26.204;2023-04-24T08:11:24;7.43;;;6.70;;
7583;SDS011;3833;41.764;26.204;2023-04-24T08:13:51;12.83;;;11.87;;
7583;SDS011;3833;41.764;26.204;2023-04-24T08:16:21;3.97;;;3.57;;
7583;SDS011;3833;41.764;26.204;2023-04-24T08:18:48;5.73;;;3.87;;
7583;SDS011;3833;41.764;26.204;2023-04-24T08:21:15;5.37;;;4.50;;
7583;SDS011;3833;41.764;26.204;2023-04-24T08:23:44;7.10;;;4.27;;
7583;SDS011;3833;41.764;26.204;2023-04-24T08:26:11;4.63;;;4.23;;
7583;SDS011;3833;41.764;26.204;2023-04-24T08:28:38;7.50;;;4.47;;
7583;SDS011;3833;41.764;26.204;2023-04-24T08:31:05;7.33;;;4.50;;
7583;SDS011;3833;41.764;26.204;2023-04-24T08:33:33;8.50;;;4.60;;
7583;SDS011;3833;41.764;26.204;2023-04-24T08:36:01;5.40;;;4.17;;
7583;SDS011;3833;41.764;26.204;2023-04-24T08:38:28;15.10;;;14.27;;
7583;SDS011;3833;41.764;26.204;2023-04-24T08:40:56;15.10;;;14.20;;
7583;SDS011;3833;41.764;26.204;2023-04-24T08:43:24;15.43;;;14.43;;
7583;SDS011;3833;41.764;26.204;2023-04-24T08:45:52;11.47;;;10.67;;
7583;SDS011;3833;41.764;26.204;2023-04-24T08:48:19;7.37;;;4.83;;
7583;SDS011;3833;41.764;26.204;2023-04-24T08:50:48;6.70;;;4.13;;
7583;SDS011;3833;41.764;26.204;2023-04-24T08:53:17;6.77;;;4.50;;
7583;SDS011;3833;41.764;26.204;2023-04-24T08:55:45;9.23;;;4.47;;
7583;SDS011;3833;41.764;26.204;2023-04-24T08:58:14;6.60;;;4.40;;
7583;SDS011;3833;41.764;26.204;2023-04-24T09:00:43;5.80;;;4.67;;
7583;SDS011;3833;41.764;26.204;2023-04-24T09:03:12;4.90;;;4.40;;
7583;SDS011;3833;41.764;26.204;2023-04-24T09:05:39;5.20;;;4.40;;
7583;SDS011;3833;41.764;26.204;2023-04-24T09:08:12;14.77;;;13.80;;
7583;SDS011;3833;41.764;26.204;2023-04-24T09:10:40;13.13;;;12.43;;
7583;SDS011;3833;41.764;26.204;2023-04-24T09:13:07;16.27;;;15.03;;
7583;SDS011;3833;41.764;26.204;2023-04-24T09:15:35;17.10;;;15.70;;
7583;SDS011;3833;41.764;26.204;2023-04-24T09:18:02;5.73;;;4.40;;
7583;SDS011;3833;41.764;26.204;2023-04-24T09:20:31;5.53;;;4.37;;
7583;SDS011;3833;41.764;26.204;2023-04-24T09:22:58;8.23;;;4.27;;
7583;SDS011;3833;41.764;26.204;2023-04-24T09:25:30;4.40;;;4.00;;
7583;SDS011;3833;41.764;26.204;2023-04-24T09:28:00;6.63;;;4.17;;
7583;SDS011;3833;41.764;26.204;2023-04-24T09:30:27;6.47;;;3.50;;
7583;SDS011;3833;41.764;26.204;2023-04-24T09:35:36;5.50;;;3.80;;
7583;SDS011;3833;41.764;26.204;2023-04-24T09:38:03;7.80;;;4.23;;
7583;SDS011;3833;41.764;26.204;2023-04-24T09:40:33;5.43;;;3.67;;
7583;SDS011;3833;41.764;26.204;2023-04-24T09:43:01;11.60;;;10.80;;
7583;SDS011;3833;41.764;26.204;2023-04-24T09:45:28;15.60;;;14.60;;
7583;SDS011;3833;41.764;26.204;2023-04-24T09:47:58;14.57;;;13.73;;
7583;SDS011;3833;41.764;26.204;2023-04-24T09:50:25;14.70;;;13.60;;
7583;SDS011;3833;41.764;26.204;2023-04-24T09:52:56;4.77;;;3.70;;
7583;SDS011;3833;41.764;26.204;2023-04-24T09:55:24;5.40;;;4.17;;
7583;SDS011;3833;41.764;26.204;2023-04-24T09:57:54;4.33;;;3.70;;
7583;SDS011;3833;41.764;26.204;2023-04-24T10:00:22;7.97;;;3.90;;
7583;SDS011;3833;41.764;26.204;2023-04-24T10:02:50;4.13;;;3.70;;
7583;SDS011;3833;41.764;26.204;2023-04-24T10:05:18;5.70;;;3.37;;
7583;SDS011;3833;41.764;26.204;2023-04-24T10:07:45;4.27;;;3.60;;
7583;SDS011;3833;41.764;26.204;2023-04-24T10:10:12;6.67;;;3.37;;
7583;SDS011;3833;41.764;26.204;2023-04-24T10:12:41;4.73;;;3.83;;
7583;SDS011;3833;41.764;26.204;2023-04-24T10:15:11;6.10;;;5.63;;
7583;SDS011;3833;41.764;26.204;2023-04-24T10:17:39;7.50;;;6.67;;
7583;SDS011;3833;41.764;26.204;2023-04-24T10:20:07;6.47;;;5.97;;
7583;SDS011;3833;41.764;26.204;2023-04-24T10:22:34;7.07;;;6.20;;
7583;SDS011;3833;41.764;26.204;2023-04-24T10:25:03;6.00;;;3.40;;
7583;SDS011;3833;41.764;26.204;2023-04-24T10:27:31;5.00;;;3.33;;
7583;SDS011;3833;41.764;26.204;2023-04-24T10:30:00;4.53;;;4.00;;
7583;SDS011;3833;41.764;26.204;2023-04-24T10:32:29;5.30;;;4.37;;
7583;SDS011;3833;41.764;26.204;2023-04-24T10:34:56;13.30;;;12.47;;
7583;SDS011;3833;41.764;26.204;2023-04-24T10:37:23;13.23;;;12.37;;
7583;SDS011;3833;41.764;26.204;2023-04-24T10:39:51;16.80;;;15.50;;
7583;SDS011;3833;41.764;26.204;2023-04-24T10:42:19;11.60;;;10.77;;
7583;SDS011;3833;41.764;26.204;2023-04-24T10:44:47;11.73;;;7.33;;
7583;SDS011;3833;41.764;26.204;2023-04-24T10:47:14;5.63;;;4.33;;
7583;SDS011;3833;41.764;26.204;2023-04-24T10:49:42;5.60;;;4.67;;
7583;SDS011;3833;41.764;26.204;2023-04-24T10:52:09;8.93;;;6.30;;
7583;SDS011;3833;41.764;26.204;2023-04-24T10:54:41;10.70;;;4.83;;
7583;SDS011;3833;41.764;26.204;2023-04-24T10:57:27;6.97;;;5.20;;
7583;SDS011;3833;41.764;26.204;2023-04-24T11:00:14;5.00;;;4.50;;
7583;SDS011;3833;41.764;26.204;2023-04-24T11:02:45;4.20;;;3.80;;
7583;SDS011;3833;41.764;26.204;2023-04-24T11:05:16;6.70;;;3.83;;
7583;SDS011;3833;41.764;26.204;2023-04-24T11:10:39;5.93;;;3.80;;
7583;SDS011;3833;41.764;26.204;2023-04-24T11:13:07;8.30;;;4.43;;
7583;SDS011;3833;41.764;26.204;2023-04-24T11:15:34;6.43;;;3.80;;
7583;SDS011;3833;41.764;26.204;2023-04-24T11:18:01;4.20;;;3.80;;
7583;SDS011;3833;41.764;26.204;2023-04-24T11:20:30;5.63;;;3.97;;
7583;SDS011;3833;41.764;26.204;2023-04-24T11:22:58;4.77;;;4.00;;
7583;SDS011;3833;41.764;26.204;2023-04-24T11:25:31;5.40;;;3.50;;
7583;SDS011;3833;41.764;26.204;2023-04-24T11:28:07;5.63;;;3.50;;
7583;SDS011;3833;41.764;26.204;2023-04-24T11:30:41;15.83;;;15.03;;
7583;SDS011;3833;41.764;26.204;2023-04-24T11:33:07;8.80;;;8.20;;
7583;SDS011;3833;41.764;26.204;2023-04-24T11:35:39;6.83;;;6.33;;
7583;SDS011;3833;41.764;26.204;2023-04-24T11:38:06;6.03;;;4.53;;
7583;SDS011;3833;41.764;26.204;2023-04-24T11:40:33;5.67;;;3.60;;
7583;SDS011;3833;41.764;26.204;2023-04-24T11:43:04;3.80;;;2.90;;
7583;SDS011;3833;41.764;26.204;2023-04-24T11:45:31;6.27;;;3.70;;
7583;SDS011;3833;41.764;26.204;2023-04-24T11:47:58;4.93;;;3.97;;
7583;SDS011;3833;41.764;26.204;2023-04-24T11:50:26;3.37;;;3.07;;
7583;SDS011;3833;41.764;26.204;2023-04-24T11:52:56;15.70;;;14.93;;
7583;SDS011;3833;41.764;26.204;2023-04-24T11:55:23;11.20;;;10.50;;
7583;SDS011;3833;41.764;26.204;2023-04-24T11:57:52;14.77;;;13.97;;
7583;SDS011;3833;41.764;26.204;2023-04-24T12:00:22;14.50;;;13.60;;
7583;SDS011;3833;41.764;26.204;2023-04-24T12:02:50;5.93;;;3.97;;
7583;SDS011;3833;41.764;26.204;2023-04-24T12:05:20;5.47;;;3.90;;
7583;SDS011;3833;41.764;26.204;2023-04-24T12:07:47;7.30;;;3.97;;
7583;SDS011;3833;41.764;26.204;2023-04-24T12:10:19;3.97;;;3.57;;
7583;SDS011;3833;41.764;26.204;2023-04-24T12:12:46;4.60;;;3.60;;
7583;SDS011;3833;41.764;26.204;2023-04-24T12:15:15;4.67;;;4.03;;
7583;SDS011;3833;41.764;26.204;2023-04-24T12:17:43;7.07;;;3.47;;
7583;SDS011;3833;41.764;26.204;2023-04-24T12:20:10;6.00;;;3.57;;
7583;SDS011;3833;41.764;26.204;2023-04-24T12:22:45;6.00;;;3.63;;
7583;SDS011;3833;41.764;26.204;2023-04-24T12:25:13;4.67;;;3.73;;
7583;SDS011;3833;41.764;26.204;2023-04-24T12:27:42;4.90;;;3.90;;
7583;SDS011;3833;41.764;26.204;2023-04-24T12:30:10;6.37;;;3.80;;
7583;SDS011;3833;41.764;26.204;2023-04-24T12:32:41;4.20;;;3.20;;
7583;SDS011;3833;41.764;26.204;2023-04-24T12:35:08;5.40;;;3.70;;
7583;SDS011;3833;41.764;26.204;2023-04-24T12:37:35;4.23;;;3.57;;
7583;SDS011;3833;41.764;26.204;2023-04-24T12:40:05;5.70;;;3.77;;
7583;SDS011;3833;41.764;26.204;2023-04-24T12:42:33;6.57;;;3.90;;
7583;SDS011;3833;41.764;26.204;2023-04-24T12:45:05;7.63;;;3.83;;
7583;SDS011;3833;41.764;26.204;2023-04-24T12:47:33;4.47;;;3.70;;
7583;SDS011;3833;41.764;26.204;2023-04-24T12:50:01;4.87;;;3.57;;
7583;SDS011;3833;41.764;26.204;2023-04-24T12:52:31;4.67;;;3.77;;
7583;SDS011;3833;41.764;26.204;2023-04-24T12:55:01;5.93;;;3.70;;
7583;SDS011;3833;41.764;26.204;2023-04-24T12:57:30;5.63;;;3.80;;
7583;SDS011;3833;41.764;26.204;2023-04-24T12:59:57;12.67;;;11.83;;
7583;SDS011;3833;41.764;26.204;2023-04-24T13:02:28;14.27;;;13.57;;
7583;SDS011;3833;41.764;26.204;2023-04-24T13:04:56;14.10;;;13.43;;
7583;SDS011;3833;41.764;26.204;2023-04-24T13:07:23;14.20;;;13.20;;
7583;SDS011;3833;41.764;26.204;2023-04-24T13:09:50;4.37;;;3.93;;
7583;SDS011;3833;41.764;26.204;2023-04-24T13:12:18;9.03;;;4.03;;
7583;SDS011;3833;41.764;26.204;2023-04-24T13:14:45;7.70;;;3.87;;
7583;SDS011;3833;41.764;26.204;2023-04-24T13:17:12;4.43;;;3.67;;
7583;SDS011;3833;41.764;26.204;2023-04-24T13:19:41;4.13;;;3.63;;
7583;SDS011;3833;41.764;26.204;2023-04-24T13:22:09;4.80;;;3.87;;
7583;SDS011;3833;41.764;26.204;2023-04-24T13:24:37;4.33;;;3.77;;
7583;SDS011;3833;41.764;26.204;2023-04-24T13:27:05;4.80;;;3.93;;
7583;SDS011;3833;41.764;26.204;2023-04-24T13:29:32;6.23;;;4.33;;
7583;SDS011;3833;41.764;26.204;2023-04-24T13:32:01;5.53;;;4.90;;
7583;SDS011;3833;41.764;26.204;2023-04-24T13:34:28;10.10;;;5.73;;
7583;SDS011;3833;41.764;26.204;2023-04-24T13:36:57;5.70;;;5.20;;
7583;SDS011;3833;41.764;26.204;2023-04-24T13:39:24;6.67;;;5.97;;
7583;SDS011;3833;41.764;26.204;2023-04-24T13:41:52;9.70;;;5.20;;
7583;SDS011;3833;41.764;26.204;2023-04-24T13:44:19;14.20;;;6.40;;
7583;SDS011;3833;41.764;26.204;2023-04-24T13:46:48;8.23;;;6.03;;
7583;SDS011;3833;41.764;26.204;2023-04-24T13:49:16;8.93;;;8.17;;
7583;SDS011;3833;41.764;26.204;2023-04-24T13:51:44;10.23;;;9.23;;
7583;SDS011;3833;41.764;26.204;2023-04-24T13:54:13;9.07;;;8.20;;
7583;SDS011;3833;41.764;26.204;2023-04-24T13:56:41;9.40;;;8.60;;
7583;SDS011;3833;41.764;26.204;2023-04-24T13:59:08;5.20;;;4.67;;
7583;SDS011;3833;41.764;26.204;2023-04-24T14:01:35;4.47;;;4.07;;
7583;SDS011;3833;41.764;26.204;2023-04-24T14:04:02;5.63;;;4.60;;
7583;SDS011;3833;41.764;26.204;2023-04-24T14:06:29;6.67;;;4.60;;
7583;SDS011;3833;41.764;26.204;2023-04-24T14:08:56;4.40;;;4.00;;
7583;SDS011;3833;41.764;26.204;2023-04-24T14:11:24;5.67;;;4.57;;
7583;SDS011;3833;41.764;26.204;2023-04-24T14:13:52;4.97;;;4.37;;
7583;SDS011;3833;41.764;26.204;2023-04-24T14:16:20;5.73;;;4.50;;
7583;SDS011;3833;41.764;26.204;2023-04-24T14:18:47;6.47;;;5.20;;
7583;SDS011;3833;41.764;26.204;2023-04-24T14:21:14;4.63;;;3.93;;
7583;SDS011;3833;41.764;26.204;2023-04-24T14:23:41;4.87;;;4.23;;
7583;SDS011;3833;41.764;26.204;2023-04-24T14:26:10;6.07;;;4.30;;
7583;SDS011;3833;41.764;26.204;2023-04-24T14:28:38;4.97;;;3.77;;
7583;SDS011;3833;41.764;26.204;2023-04-24T14:31:05;5.03;;;4.63;;
7583;SDS011;3833;41.764;26.204;2023-04-24T14:33:34;5.53;;;4.00;;
7583;SDS011;3833;41.764;26.204;2023-04-24T14:36:01;9.10;;;4.07;;
7583;SDS011;3833;41.764;26.204;2023-04-24T14:38:30;7.07;;;4.90;;
7583;SDS011;3833;41.764;26.204;2023-04-24T14:40:57;4.97;;;4.20;;
7583;SDS011;3833;41.764;26.204;2023-04-24T14:43:24;5.03;;;4.30;;
7583;SDS011;3833;41.764;26.204;2023-04-24T14:45:53;7.87;;;5.07;;
7583;SDS011;3833;41.764;26.204;2023-04-24T14:48:20;5.10;;;4.60;;
7583;SDS011;3833;41.764;26.204;2023-04-24T14:50:46;5.20;;;4.70;;
7583;SDS011;3833;41.764;26.204;2023-04-24T14:53:14;6.47;;;4.70;;
7583;SDS011;3833;41.764;26.204;2023-04-24T14:55:41;7.20;;;5.10;;
7583;SDS011;3833;41.764;26.204;2023-04-24T14:58:08;6.33;;;4.30;;
7583;SDS011;3833;41.764;26.204;2023-04-24T15:00:35;10.17;;;4.90;;
7583;SDS011;3833;41.764;26.204;2023-04-24T15:03:04;8.30;;;5.67;;